Time;durP1;ratioP1;P1;durP2;ratioP2;P2;SDS_P1;SDS_P2;PMS_P1;PMS_P2;Temp;Humidity;BMP_temperature;BMP_pressure;BME280_temperature;BME280_humidity;BME280_pressure;Samples;Min_cycle;Max_cycle;Signal;HPM_P1;HPM_P2
2022/03/20 00:01:10;;;;;;;;;;;;;;;-0.28;49.90;102086.56;5052829;28;20312;-52
2022/03/20 00:03:36;;;;;;;;;;;;;;;-0.25;50.12;102081.16;5052133;28;20395;-53
2022/03/20 00:06:01;;;;;;;;;;;;;;;-0.03;51.34;102081.78;5051821;28;19913;-51
2022/03/20 00:08:27;;;;;;;;;;;;;;;-0.12;49.45;102079.63;5052835;28;19935;-51
2022/03/20 00:10:53;;;;;;;;;;;;;;;-0.06;50.34;102081.09;5052571;28;20304;-48
2022/03/20 00:13:20;;;;;;;;;;;;;;;0.00;49.81;102072.94;5052436;28;20412;-49
2022/03/20 00:15:46;;;;;;;;;;;;;;;-0.08;48.90;102086.38;5052613;28;19913;-52
2022/03/20 00:18:13;;;;;;;;;;;;;;;-0.18;51.54;102074.69;5052841;28;19985;-52
2022/03/20 00:20:40;;;;;;;;;;;;;;;-0.24;50.19;102075.00;5052609;28;20381;-50
2022/03/20 00:23:07;;;;;;;;;;;;;;;-0.06;50.39;102066.25;5051766;28;19925;-50
2022/03/20 00:25:34;;;;;;;;;;;;;;;0.07;49.18;102060.38;5052552;28;19917;-52
2022/03/20 00:27:59;;;;;;;;;;;;;;;-0.17;50.56;102055.47;5052354;28;19924;-53
2022/03/20 00:30:25;;;;;;;;;;;;;;;-0.18;49.92;102058.16;5052413;28;19912;-50
2022/03/20 00:32:50;;;;;;;;;;;;;;;-0.10;51.49;102054.22;5051701;28;20423;-50
2022/03/20 00:35:15;;;;;;;;;;;;;;;-0.04;51.79;102059.16;5052081;28;19916;-51
2022/03/20 00:37:41;;;;;;;;;;;;;;;-0.21;51.89;102054.78;5052488;28;19913;-50
2022/03/20 00:40:06;;;;;;;;;;;;;;;-0.40;52.59;102052.22;5052304;28;20453;-51
2022/03/20 00:42:32;;;;;;;;;;;;;;;-0.37;50.49;102051.22;5051930;28;20399;-51
2022/03/20 00:44:57;;;;;;;;;;;;;;;-0.31;51.07;102045.66;5050997;28;19912;-50
2022/03/20 00:47:22;;;;;;;;;;;;;;;-0.25;50.90;102034.06;5051641;28;19913;-50
2022/03/20 00:49:48;;;;;;;;;;;;;;;-0.37;50.78;102035.53;5052129;28;19919;-49
2022/03/20 00:52:13;;;;;;;;;;;;;;;-0.43;52.50;102044.50;5051824;28;19944;-52
2022/03/20 00:54:38;;;;;;;;;;;;;;;-0.37;52.05;102045.16;5051931;28;20253;-50
2022/03/20 00:57:04;;;;;;;;;;;;;;;-0.43;52.36;102047.13;5051926;28;19912;-49
2022/03/20 00:59:29;;;;;;;;;;;;;;;-0.43;52.25;102044.50;5052022;28;20387;-51
2022/03/20 01:01:55;;;;;;;;;;;;;;;-0.22;51.42;102041.75;5051765;28;20372;-51
2022/03/20 01:04:20;;;;;;;;;;;;;;;-0.36;51.78;102047.69;5051438;28;19917;-51
2022/03/20 01:06:45;;;;;;;;;;;;;;;-0.37;52.98;102047.75;5051660;28;19924;-48
2022/03/20 01:09:11;;;;;;;;;;;;;;;-0.52;51.38;102039.72;5051750;28;20288;-50
2022/03/20 01:11:37;;;;;;;;;;;;;;;-0.42;53.23;102042.75;5051571;28;19975;-52
2022/03/20 01:14:03;;;;;;;;;;;;;;;-0.46;52.07;102046.44;5051888;28;19916;-51
2022/03/20 01:16:28;;;;;;;;;;;;;;;-0.44;52.08;102047.19;5051525;28;19935;-48
2022/03/20 01:18:53;;;;;;;;;;;;;;;-0.32;51.81;102045.78;5051614;28;20334;-51
2022/03/20 01:21:18;;;;;;;;;;;;;;;-0.27;55.01;102046.38;5051565;28;19978;-50
2022/03/20 01:23:45;;;;;;;;;;;;;;;-0.30;51.73;102046.53;5051105;28;19925;-49
2022/03/20 01:26:11;;;;;;;;;;;;;;;-0.31;53.10;102048.28;5052313;28;19936;-48
2022/03/20 01:28:37;;;;;;;;;;;;;;;-0.31;55.19;102044.84;5051291;28;19940;-47
2022/03/20 01:31:02;;;;;;;;;;;;;;;-0.28;55.10;102047.31;5051556;28;20404;-49
2022/03/20 01:33:27;;;;;;;;;;;;;;;-0.54;53.18;102038.13;5051372;28;20244;-50
2022/03/20 01:35:53;;;;;;;;;;;;;;;-0.48;52.65;102032.59;5051764;28;19920;-49
2022/03/20 01:38:20;;;;;;;;;;;;;;;-0.55;52.58;102036.41;5051388;28;19920;-51
2022/03/20 01:40:49;;;;;;;;;;;;;;;-0.38;54.48;102035.59;5051618;28;19920;-51
2022/03/20 01:43:14;;;;;;;;;;;;;;;-0.47;53.46;102032.50;5051713;28;19917;-51
2022/03/20 01:45:39;;;;;;;;;;;;;;;-0.71;54.43;102028.50;5054466;28;19920;-48
2022/03/20 01:48:05;;;;;;;;;;;;;;;-0.85;55.01;102032.63;5055334;28;20015;-51
2022/03/20 01:50:32;;;;;;;;;;;;;;;-0.69;55.54;102035.31;5055546;28;19913;-47
2022/03/20 01:52:58;;;;;;;;;;;;;;;-0.71;56.24;102025.88;5055833;28;19936;-51
2022/03/20 01:55:24;;;;;;;;;;;;;;;-0.74;55.81;102032.09;5055239;28;19913;-50
2022/03/20 01:57:50;;;;;;;;;;;;;;;-0.76;57.29;102030.47;5055346;28;19948;-52
2022/03/20 02:00:15;;;;;;;;;;;;;;;-0.80;57.24;102033.25;5055582;28;19956;-49
2022/03/20 02:02:41;;;;;;;;;;;;;;;-0.90;55.68;102039.81;5054994;28;20462;-52
2022/03/20 02:05:07;;;;;;;;;;;;;;;-0.78;57.37;102038.41;5055235;28;19921;-51
2022/03/20 02:07:34;;;;;;;;;;;;;;;-1.15;58.16;102042.75;5054856;28;19916;-48
2022/03/20 02:09:59;;;;;;;;;;;;;;;-0.89;58.34;102041.53;5055141;28;19951;-46
2022/03/20 02:12:25;;;;;;;;;;;;;;;-1.00;57.74;102042.03;5055043;28;19974;-50
2022/03/20 02:14:50;;;;;;;;;;;;;;;-1.25;57.67;102042.34;5054977;28;19912;-48
2022/03/20 02:17:15;;;;;;;;;;;;;;;-1.28;58.02;102050.28;5055096;28;19939;-51
2022/03/20 02:19:41;;;;;;;;;;;;;;;-1.24;58.47;102049.25;5055417;28;19913;-50
2022/03/20 02:22:07;;;;;;;;;;;;;;;-1.12;58.34;102044.34;5054437;28;20027;-51
2022/03/20 02:24:32;;;;;;;;;;;;;;;-1.16;56.20;102042.81;5054971;28;19916;-50
2022/03/20 02:27:05;;;;;;;;;;;;;;;-1.41;58.46;102042.19;5054716;28;20000;-52
2022/03/20 02:29:30;;;;;;;;;;;;;;;-1.32;58.50;102037.47;5054787;28;19920;-51
2022/03/20 02:31:58;;;;;;;;;;;;;;;-1.30;57.77;102033.00;5054800;28;20339;-52
2022/03/20 02:34:24;;;;;;;;;;;;;;;-1.60;58.22;102033.47;5054568;28;20476;-49
2022/03/20 02:36:50;;;;;;;;;;;;;;;-1.88;60.24;102032.09;5054784;28;19912;-51
2022/03/20 02:39:15;;;;;;;;;;;;;;;-1.90;61.40;102039.16;5054442;28;20008;-49
2022/03/20 02:41:40;;;;;;;;;;;;;;;-1.51;60.79;102034.84;5054622;28;20342;-48
2022/03/20 02:44:06;;;;;;;;;;;;;;;-1.22;59.84;102036.09;5054429;28;20038;-49
2022/03/20 02:46:37;;;;;;;;;;;;;;;-1.54;60.02;102037.56;5054322;28;19917;-49
2022/03/20 02:49:04;;;;;;;;;;;;;;;-1.49;60.03;102033.84;5054501;28;20333;-48
2022/03/20 02:51:29;;;;;;;;;;;;;;;-1.74;60.02;102033.25;5054738;28;19913;-51
2022/03/20 02:53:55;;;;;;;;;;;;;;;-1.66;59.53;102031.97;5054613;28;20335;-50
2022/03/20 02:56:21;;;;;;;;;;;;;;;-1.79;58.28;102038.66;5053620;28;20101;-50
2022/03/20 02:58:47;;;;;;;;;;;;;;;-1.73;58.51;102030.59;5054598;28;20424;-50
2022/03/20 03:01:13;;;;;;;;;;;;;;;-1.72;62.05;102036.66;5054053;28;19913;-50
2022/03/20 03:03:40;;;;;;;;;;;;;;;-1.59;60.90;102032.56;5054343;28;19919;-51
2022/03/20 03:06:08;;;;;;;;;;;;;;;-1.49;59.47;102035.63;5054104;28;19924;-50
2022/03/20 03:11:18;;;;;;;;;;;;;;;-1.18;56.92;102032.47;5053874;28;20363;-50
2022/03/20 03:13:43;;;;;;;;;;;;;;;-1.27;57.74;102025.03;5054008;28;20007;-50
2022/03/20 03:16:13;;;;;;;;;;;;;;;-1.26;57.18;102021.50;5053908;28;19912;-47
2022/03/20 03:18:38;;;;;;;;;;;;;;;-1.13;57.78;102029.63;5053470;28;20351;-50
2022/03/20 03:21:04;;;;;;;;;;;;;;;-0.85;55.31;102027.38;5053665;28;19913;-50
2022/03/20 03:23:30;;;;;;;;;;;;;;;-1.00;55.36;102031.56;5053466;28;20411;-51
2022/03/20 03:25:55;;;;;;;;;;;;;;;-1.00;54.06;102033.34;5053593;28;20335;-47
2022/03/20 03:28:22;;;;;;;;;;;;;;;-1.00;56.83;102035.97;5053521;28;19912;-49
2022/03/20 03:30:48;;;;;;;;;;;;;;;-0.99;54.34;102033.28;5053676;28;19917;-47
2022/03/20 03:33:16;;;;;;;;;;;;;;;-1.03;56.55;102034.34;5053596;28;19913;-50
2022/03/20 03:35:42;;;;;;;;;;;;;;;-0.89;55.18;102028.47;5052839;28;19966;-48
2022/03/20 03:38:15;;;;;;;;;;;;;;;-0.81;53.95;102030.69;5053563;28;20392;-48
2022/03/20 03:40:42;;;;;;;;;;;;;;;-1.00;54.41;102038.56;5053196;28;20000;-47
2022/03/20 03:43:07;;;;;;;;;;;;;;;-1.04;54.70;102030.03;5053424;28;19921;-48
2022/03/20 03:45:33;;;;;;;;;;;;;;;-1.10;56.11;102030.31;5053089;28;19924;-49
2022/03/20 03:47:58;;;;;;;;;;;;;;;-0.96;53.73;102032.28;5053278;28;20442;-49
2022/03/20 03:50:24;;;;;;;;;;;;;;;-0.98;57.13;102034.97;5053037;28;19913;-51
2022/03/20 03:52:49;;;;;;;;;;;;;;;-1.02;55.54;102025.56;5053082;28;20368;-51
2022/03/20 03:55:15;;;;;;;;;;;;;;;-1.07;55.10;102026.72;5053090;28;19913;-50
2022/03/20 03:57:48;;;;;;;;;;;;;;;-1.10;54.55;102035.56;5052899;28;20011;-51
2022/03/20 04:00:14;;;;;;;;;;;;;;;-1.08;54.41;102032.88;5052725;28;20007;-52
2022/03/20 04:02:39;;;;;;;;;;;;;;;-0.81;53.09;102026.31;5053013;28;19917;-50
2022/03/20 04:05:05;;;;;;;;;;;;;;;-1.01;53.21;102029.03;5052624;28;20304;-49
2022/03/20 04:07:30;;;;;;;;;;;;;;;-1.04;52.36;102031.81;5052196;28;19976;-49
2022/03/20 04:09:56;;;;;;;;;;;;;;;-1.17;56.27;102028.06;5052958;28;20011;-49
2022/03/20 04:12:21;;;;;;;;;;;;;;;-1.10;53.94;102030.31;5052075;28;20282;-48
2022/03/20 04:14:48;;;;;;;;;;;;;;;-1.12;52.49;102033.91;5052726;28;19917;-50
2022/03/20 04:17:14;;;;;;;;;;;;;;;-1.02;54.33;102030.81;5052733;28;19916;-50
2022/03/20 04:19:39;;;;;;;;;;;;;;;-1.02;51.77;102030.81;5052744;28;19912;-49
2022/03/20 04:22:04;;;;;;;;;;;;;;;-1.17;53.48;102033.28;5052577;28;20390;-51
2022/03/20 04:24:30;;;;;;;;;;;;;;;-0.92;52.14;102030.38;5052433;28;19948;-51
2022/03/20 04:26:57;;;;;;;;;;;;;;;-0.79;52.64;102034.09;5052373;28;20380;-51
2022/03/20 04:29:23;;;;;;;;;;;;;;;-0.70;51.57;102036.25;5052886;28;19950;-51
2022/03/20 04:31:48;;;;;;;;;;;;;;;-0.89;52.98;102044.16;5052313;28;20015;-51
2022/03/20 04:34:14;;;;;;;;;;;;;;;-0.97;50.44;102041.06;5052231;28;20376;-49
2022/03/20 04:36:39;;;;;;;;;;;;;;;-0.81;51.31;102038.53;5052219;28;20344;-48
2022/03/20 04:39:04;;;;;;;;;;;;;;;-0.78;51.22;102033.19;5052084;28;19917;-50
2022/03/20 04:41:30;;;;;;;;;;;;;;;-0.41;50.93;102047.06;5052118;28;19924;-50
2022/03/20 04:43:56;;;;;;;;;;;;;;;-0.52;50.89;102038.91;5051910;28;19924;-49
2022/03/20 04:46:21;;;;;;;;;;;;;;;-0.46;51.86;102043.81;5052086;28;20329;-50
2022/03/20 04:59:42;;;;;;;;;;;;;;;0.24;49.13;102033.31;5052547;28;20011;-51
2022/03/20 05:02:08;;;;;;;;;;;;;;;0.56;47.56;102032.44;5052052;28;20003;-51
2022/03/20 05:04:33;;;;;;;;;;;;;;;0.63;46.23;102038.22;5051909;28;19917;-49
2022/03/20 05:06:58;;;;;;;;;;;;;;;0.75;47.35;102040.16;5050964;28;19913;-48
2022/03/20 05:14:55;;;;;;;;;;;;;;;1.02;46.95;102047.44;5051744;28;20296;-48
2022/03/20 05:17:20;;;;;;;;;;;;;;;1.28;45.49;102048.59;5051816;28;20280;-48
2022/03/20 05:19:46;;;;;;;;;;;;;;;1.61;44.85;102054.63;5051854;28;19919;-50
2022/03/20 05:22:11;;;;;;;;;;;;;;;1.76;47.11;102056.34;5050912;28;19972;-49
2022/03/20 05:24:37;;;;;;;;;;;;;;;1.81;45.36;102056.06;5051697;28;19986;-48
2022/03/20 05:27:03;;;;;;;;;;;;;;;1.93;44.73;102048.34;5051941;28;19925;-48
2022/03/20 05:29:28;;;;;;;;;;;;;;;2.19;45.02;102060.84;5051503;28;20003;-50
2022/03/20 05:31:53;;;;;;;;;;;;;;;2.48;42.97;102053.81;5051858;28;20407;-49
2022/03/20 05:34:20;;;;;;;;;;;;;;;3.48;41.71;102053.59;5051721;28;19913;-51
2022/03/20 05:36:45;;;;;;;;;;;;;;;3.51;40.34;102050.75;5051453;28;19913;-48
2022/03/20 05:39:11;;;;;;;;;;;;;;;3.38;40.25;102055.13;5051401;28;19970;-49
2022/03/20 05:41:49;;;;;;;;;;;;;;;3.13;42.12;102061.13;5051799;28;19916;-50
2022/03/20 05:44:24;;;;;;;;;;;;;;;3.39;40.71;102054.19;5051318;28;20011;-52
2022/03/20 05:46:50;;;;;;;;;;;;;;;3.44;40.88;102053.88;5051668;28;19920;-51
2022/03/20 05:49:16;;;;;;;;;;;;;;;4.61;42.59;102067.91;5051267;28;19919;-52
2022/03/20 05:51:42;;;;;;;;;;;;;;;5.05;38.24;102071.81;5051230;28;19913;-49
2022/03/20 05:54:08;;;;;;;;;;;;;;;4.68;37.65;102068.31;5052034;28;20011;-49
2022/03/20 05:59:17;;;;;;;;;;;;;;;4.31;38.03;102074.34;5051378;28;19924;-48
2022/03/20 06:01:42;;;;;;;;;;;;;;;4.73;38.78;102068.84;5051523;28;19913;-49
2022/03/20 06:04:08;;;;;;;;;;;;;;;5.22;37.76;102080.31;5051449;28;19917;-48
2022/03/20 06:06:35;;;;;;;;;;;;;;;5.00;38.35;102078.38;5050725;28;19912;-49
2022/03/20 06:09:01;;;;;;;;;;;;;;;4.72;38.18;102071.56;5049870;28;19946;-50
2022/03/20 06:11:26;;;;;;;;;;;;;;;4.90;38.44;102070.28;5050676;28;19917;-51
2022/03/20 06:13:53;;;;;;;;;;;;;;;5.25;37.22;102072.16;5050738;28;19920;-50
2022/03/20 06:16:18;;;;;;;;;;;;;;;5.51;37.56;102080.81;5051129;28;19912;-50
2022/03/20 06:18:44;;;;;;;;;;;;;;;5.83;36.07;102078.41;5050822;28;19920;-51
2022/03/20 06:21:12;;;;;;;;;;;;;;;5.62;35.58;102074.75;5051130;28;19913;-50
2022/03/20 06:23:38;;;;;;;;;;;;;;;5.39;35.68;102077.28;5050525;28;20388;-50
2022/03/20 06:26:04;;;;;;;;;;;;;;;5.37;34.95;102075.69;5051331;28;19920;-49
2022/03/20 06:28:30;;;;;;;;;;;;;;;5.52;35.12;102081.66;5051093;28;19913;-50
2022/03/20 06:30:55;;;;;;;;;;;;;;;5.60;34.32;102074.03;5052731;28;19913;-48
2022/03/20 06:33:20;;;;;;;;;;;;;;;5.88;34.19;102071.00;5054685;28;19913;-48
2022/03/20 06:35:46;;;;;;;;;;;;;;;5.33;34.54;102077.75;5054340;28;20288;-53
2022/03/20 06:38:12;;;;;;;;;;;;;;;5.75;34.22;102085.22;5054572;28;20304;-50
2022/03/20 06:40:37;;;;;;;;;;;;;;;6.05;33.92;102076.81;5054438;28;19917;-48
2022/03/20 06:43:02;;;;;;;;;;;;;;;6.61;33.25;102079.53;5054451;28;19920;-48
2022/03/20 06:45:28;;;;;;;;;;;;;;;6.49;33.16;102076.97;5054386;28;19917;-49
2022/03/20 06:47:54;;;;;;;;;;;;;;;6.75;32.84;102072.31;5054362;28;19919;-49
2022/03/20 06:50:19;;;;;;;;;;;;;;;7.37;33.56;102073.50;5054490;28;20007;-48
2022/03/20 06:52:45;;;;;;;;;;;;;;;6.82;31.85;102076.16;5054185;28;19920;-50
2022/03/20 06:55:15;;;;;;;;;;;;;;;7.23;31.48;102074.63;5054473;28;19920;-48
2022/03/20 06:57:42;;;;;;;;;;;;;;;7.27;31.78;102072.56;5054598;28;19924;-48
2022/03/20 07:00:07;;;;;;;;;;;;;;;7.82;31.37;102076.81;5054630;28;20695;-50
2022/03/20 07:02:33;;;;;;;;;;;;;;;8.09;31.34;102071.94;5054137;28;19987;-51
2022/03/20 07:04:58;;;;;;;;;;;;;;;7.91;31.99;102067.22;5054265;28;19936;-49
2022/03/20 07:07:23;;;;;;;;;;;;;;;8.37;30.20;102065.94;5053677;28;20312;-49
2022/03/20 07:09:49;;;;;;;;;;;;;;;8.95;29.71;102076.00;5053517;28;19912;-48
2022/03/20 07:12:14;;;;;;;;;;;;;;;9.39;29.39;102073.00;5053703;28;19916;-51
2022/03/20 07:14:41;;;;;;;;;;;;;;;9.15;29.19;102073.38;5053638;28;19948;-48
2022/03/20 07:17:09;;;;;;;;;;;;;;;9.27;28.62;102074.06;5053590;28;20034;-49
2022/03/20 07:19:38;;;;;;;;;;;;;;;9.28;28.71;102071.28;5053880;28;19935;-50
2022/03/20 07:22:05;;;;;;;;;;;;;;;9.20;28.64;102064.00;5052749;28;20054;-48
2022/03/20 07:24:30;;;;;;;;;;;;;;;8.65;28.62;102065.41;5053740;28;19924;-49
2022/03/20 07:29:39;;;;;;;;;;;;;;;8.54;29.09;102053.91;5052977;28;19970;-49
2022/03/20 07:32:06;;;;;;;;;;;;;;;9.10;29.97;102057.00;5052780;28;19913;-50
2022/03/20 07:34:35;;;;;;;;;;;;;;;9.96;30.70;102057.97;5052851;28;19999;-53
2022/03/20 07:37:00;;;;;;;;;;;;;;;11.14;35.36;102055.69;5052990;28;20368;-51
2022/03/20 07:39:26;;;;;;;;;;;;;;;11.54;29.87;102055.22;5052683;28;19920;-49
2022/03/20 07:41:51;;;;;;;;;;;;;;;12.73;26.48;102055.66;5052722;28;19920;-50
2022/03/20 07:44:17;;;;;;;;;;;;;;;13.23;24.58;102060.97;5052528;28;19927;-50
2022/03/20 07:46:43;;;;;;;;;;;;;;;12.98;24.35;102048.53;5052223;28;20408;-49
2022/03/20 07:49:08;;;;;;;;;;;;;;;11.60;24.37;102059.09;5052170;28;19919;-50
2022/03/20 07:51:34;;;;;;;;;;;;;;;11.26;25.21;102050.97;5052599;28;19913;-49
2022/03/20 07:54:00;;;;;;;;;;;;;;;11.48;25.08;102050.50;5052167;28;20082;-50
2022/03/20 07:56:28;;;;;;;;;;;;;;;11.93;24.27;102052.22;5052699;28;19912;-48
2022/03/20 07:58:54;;;;;;;;;;;;;;;10.81;25.49;102046.47;5052552;28;19978;-50
2022/03/20 08:01:19;;;;;;;;;;;;;;;11.26;25.62;102046.47;5052428;28;19944;-48
2022/03/20 08:03:44;;;;;;;;;;;;;;;10.63;25.74;102041.13;5052122;28;19960;-49
2022/03/20 08:06:10;;;;;;;;;;;;;;;10.46;25.33;102042.72;5052147;28;20312;-50
2022/03/20 08:08:39;;;;;;;;;;;;;;;10.53;24.71;102038.50;5051809;28;19963;-50
2022/03/20 08:11:05;;;;;;;;;;;;;;;10.87;24.68;102030.75;5051842;28;19920;-50
2022/03/20 08:13:31;;;;;;;;;;;;;;;10.93;25.13;102034.66;5051730;28;19913;-49
2022/03/20 08:15:56;;;;;;;;;;;;;;;10.89;24.75;102031.44;5052084;28;19912;-50
2022/03/20 08:18:21;;;;;;;;;;;;;;;10.66;25.29;102036.34;5051995;28;19916;-51
2022/03/20 08:20:47;;;;;;;;;;;;;;;10.47;24.59;102013.31;5052128;28;20377;-47
2022/03/20 08:23:12;;;;;;;;;;;;;;;10.45;25.08;102015.28;5051203;28;19977;-49
2022/03/20 08:25:38;;;;;;;;;;;;;;;10.85;25.66;102006.09;5051987;28;20288;-48
2022/03/20 08:28:05;;;;;;;;;;;;;;;10.99;24.33;102007.41;5051890;28;19986;-50
2022/03/20 08:30:31;;;;;;;;;;;;;;;11.02;24.57;102008.91;5047739;28;20361;-37
2022/03/20 08:32:56;;;;;;;;;;;;;;;10.45;24.47;102004.63;5051410;28;19923;-37
2022/03/20 08:35:22;;;;;;;;;;;;;;;10.96;23.93;102002.34;5051910;28;19912;-37
2022/03/20 08:37:48;;;;;;;;;;;;;;;11.92;22.86;102015.03;5051460;28;20582;-37
2022/03/20 08:40:17;;;;;;;;;;;;;;;11.93;22.84;102017.53;5051433;28;19913;-37
2022/03/20 08:42:47;;;;;;;;;;;;;;;11.63;22.81;101999.28;5051738;28;19948;-38
2022/03/20 08:45:13;;;;;;;;;;;;;;;10.98;23.50;102004.88;5051021;28;19923;-39
2022/03/20 08:47:39;;;;;;;;;;;;;;;11.09;23.13;101994.81;5051386;28;19963;-37
2022/03/20 08:50:04;;;;;;;;;;;;;;;11.20;23.36;101984.94;5051235;28;20380;-37
2022/03/20 08:52:30;;;;;;;;;;;;;;;11.58;22.88;101988.25;5050890;28;20403;-37
2022/03/20 08:54:56;;;;;;;;;;;;;;;11.49;22.77;101982.84;5050765;28;19913;-38
2022/03/20 08:57:25;;;;;;;;;;;;;;;11.26;21.92;101977.16;5051428;28;19943;-37
2022/03/20 08:59:50;;;;;;;;;;;;;;;10.86;23.87;101981.13;5050052;28;20315;-39
2022/03/20 09:02:15;;;;;;;;;;;;;;;10.53;23.29;101982.59;5050482;28;19916;-50
2022/03/20 09:04:41;;;;;;;;;;;;;;;10.58;23.38;101974.97;5050381;28;20297;-50
2022/03/20 09:07:06;;;;;;;;;;;;;;;10.56;23.37;101971.63;5048580;28;19916;-48
2022/03/20 09:09:31;;;;;;;;;;;;;;;10.81;22.88;101967.41;5049259;28;19916;-49
2022/03/20 09:11:57;;;;;;;;;;;;;;;11.83;21.56;101963.41;5049272;28;19998;-50
2022/03/20 09:14:22;;;;;;;;;;;;;;;11.37;20.83;101954.75;5050312;28;20307;-50
2022/03/20 09:19:31;;;;;;;;;;;;;;;10.50;22.07;101950.94;5051122;28;19919;-50
2022/03/20 09:21:57;;;;;;;;;;;;;;;10.46;23.07;101954.88;5050947;28;19920;-49
2022/03/20 09:24:22;;;;;;;;;;;;;;;10.35;22.59;101959.41;5050621;28;19935;-50
2022/03/20 09:26:47;;;;;;;;;;;;;;;10.57;24.00;101955.50;5050792;28;20353;-49
2022/03/20 09:29:14;;;;;;;;;;;;;;;11.93;21.75;101958.00;5050585;28;19959;-52
2022/03/20 09:31:39;;;;;;;;;;;;;;;11.49;22.26;101955.34;5050750;28;20023;-49
2022/03/20 09:34:04;;;;;;;;;;;;;;;10.80;22.02;101952.44;5050347;28;20386;-51
2022/03/20 09:36:30;;;;;;;;;;;;;;;10.66;22.87;101942.28;5051398;28;19996;-51
2022/03/20 09:38:55;;;;;;;;;;;;;;;10.79;23.50;101944.59;5051030;28;20466;-48
2022/03/20 09:41:23;;;;;;;;;;;;;;;10.42;23.04;101938.38;5050820;28;19913;-51
2022/03/20 09:43:48;;;;;;;;;;;;;;;10.37;22.80;101930.81;5050802;28;19980;-37
2022/03/20 09:46:20;;;;;;;;;;;;;;;11.40;22.35;101937.63;5050894;28;19928;-37
2022/03/20 09:48:46;;;;;;;;;;;;;;;10.49;23.46;101931.47;5050653;28;19913;-51
2022/03/20 09:51:12;;;;;;;;;;;;;;;10.65;24.16;101936.13;5047241;28;19935;-52
2022/03/20 09:53:37;;;;;;;;;;;;;;;10.48;22.89;101921.78;5044506;28;20033;-50
2022/03/20 09:56:05;;;;;;;;;;;;;;;10.40;23.33;101923.53;5050565;28;19944;-48
2022/03/20 09:58:31;;;;;;;;;;;;;;;10.86;22.73;101922.50;5050466;28;19917;-49
2022/03/20 10:00:56;;;;;;;;;;;;;;;11.62;21.72;101914.94;5051460;28;19963;-52
2022/03/20 10:03:22;;;;;;;;;;;;;;;11.57;21.50;101915.41;5050819;28;19916;-38
2022/03/20 10:06:04;;;;;;;;;;;;;;;11.13;21.01;101907.44;5052165;28;19971;-37
2022/03/20 10:08:30;;;;;;;;;;;;;;;9.50;22.38;101902.75;5053282;28;20411;-37
2022/03/20 10:11:15;;;;;;;;;;;;;;;9.65;22.76;101905.75;5053134;28;20004;-37
2022/03/20 10:14:01;;;;;;;;;;;;;;;10.06;23.22;101903.66;5053128;28;19912;-37
2022/03/20 10:16:26;;;;;;;;;;;;;;;10.74;21.80;101900.59;5052932;28;19913;-37
2022/03/20 10:18:51;;;;;;;;;;;;;;;12.20;21.05;101902.72;5051731;28;19923;-37
2022/03/20 10:21:19;;;;;;;;;;;;;;;12.02;21.09;101894.84;5051505;28;20458;-37
2022/03/20 10:23:46;;;;;;;;;;;;;;;11.55;22.31;101893.38;5051246;28;20194;-37
2022/03/20 10:26:12;;;;;;;;;;;;;;;10.64;23.01;101893.66;5051588;28;20007;-37
2022/03/20 10:28:39;;;;;;;;;;;;;;;10.80;23.13;101890.34;5052451;28;19916;-37
2022/03/20 10:31:05;;;;;;;;;;;;;;;10.81;22.04;101889.34;5051226;28;20265;-38
2022/03/20 10:33:30;;;;;;;;;;;;;;;10.68;22.10;101895.88;5053824;28;19938;-37
2022/03/20 10:36:14;;;;;;;;;;;;;;;10.27;22.54;101892.75;5054130;28;19913;-37
2022/03/20 10:38:41;;;;;;;;;;;;;;;11.34;21.45;101880.44;5054262;28;19970;-37
2022/03/20 10:41:24;;;;;;;;;;;;;;;11.66;20.98;101879.78;5054191;28;19919;-38
2022/03/20 10:43:50;;;;;;;;;;;;;;;10.94;21.66;101871.97;5054124;28;19948;-38
2022/03/20 10:46:23;;;;;;;;;;;;;;;10.36;21.66;101877.75;5053816;28;20043;-38
2022/03/20 10:48:49;;;;;;;;;;;;;;;10.35;21.76;101878.72;5053958;28;19923;-38
2022/03/20 10:51:24;;;;;;;;;;;;;;;10.31;22.05;101872.03;5053813;28;19919;-38
2022/03/20 10:53:53;;;;;;;;;;;;;;;10.98;21.88;101864.50;5053936;28;19912;-38
2022/03/20 10:56:18;;;;;;;;;;;;;;;11.82;20.39;101862.19;5054095;28;20000;-38
2022/03/20 10:58:43;;;;;;;;;;;;;;;11.12;20.93;101860.47;5053737;28;20387;-38
2022/03/20 11:01:09;;;;;;;;;;;;;;;11.11;20.49;101853.44;5053568;28;19966;-38
2022/03/20 11:03:38;;;;;;;;;;;;;;;11.14;20.92;101856.66;5053374;28;19916;-36
2022/03/20 11:06:07;;;;;;;;;;;;;;;11.02;22.05;101855.22;5053149;28;19924;-36
2022/03/20 11:08:32;;;;;;;;;;;;;;;11.05;21.78;101846.91;5053283;28;19913;-38
2022/03/20 11:10:58;;;;;;;;;;;;;;;10.88;22.35;101850.44;5053248;28;19974;-38
2022/03/20 11:13:26;;;;;;;;;;;;;;;10.78;21.37;101847.88;5053083;28;20007;-37
2022/03/20 11:15:53;;;;;;;;;;;;;;;10.31;21.61;101846.25;5052954;28;19913;-37
2022/03/20 11:18:20;;;;;;;;;;;;;;;11.76;20.17;101841.50;5053289;28;19916;-37
2022/03/20 11:20:48;;;;;;;;;;;;;;;12.37;19.57;101840.38;5053214;28;19916;-38
2022/03/20 11:23:14;;;;;;;;;;;;;;;10.99;20.11;101838.72;5053039;28;19925;-37
2022/03/20 11:25:42;;;;;;;;;;;;;;;10.47;21.02;101839.41;5053212;28;20394;-37
2022/03/20 11:28:09;;;;;;;;;;;;;;;10.84;21.88;101835.78;5053189;28;20295;-37
2022/03/20 11:30:36;;;;;;;;;;;;;;;10.99;21.83;101828.91;5053232;28;19970;-38
2022/03/20 11:33:02;;;;;;;;;;;;;;;10.76;21.58;101832.03;5053089;28;20332;-38
2022/03/20 11:35:31;;;;;;;;;;;;;;;11.85;20.90;101841.38;5052773;28;20364;-39
2022/03/20 11:38:13;;;;;;;;;;;;;;;11.86;21.22;101829.72;5053090;28;20303;-38
2022/03/20 11:40:41;;;;;;;;;;;;;;;10.87;20.24;101814.13;5052995;28;19948;-37
2022/03/20 11:43:13;;;;;;;;;;;;;;;10.41;21.16;101813.41;5052756;28;19921;-37
2022/03/20 11:45:38;;;;;;;;;;;;;;;10.61;21.27;101816.78;5052866;28;19912;-37
2022/03/20 11:48:14;;;;;;;;;;;;;;;10.45;20.91;101805.00;5052693;28;19913;-38
2022/03/20 11:50:41;;;;;;;;;;;;;;;11.03;20.74;101802.78;5052053;28;19916;-37
2022/03/20 11:53:06;;;;;;;;;;;;;;;10.99;21.00;101801.44;5052348;28;20445;-38
2022/03/20 11:55:40;;;;;;;;;;;;;;;11.28;20.83;101796.59;5052620;28;20012;-38
2022/03/20 11:58:08;;;;;;;;;;;;;;;11.58;20.04;101798.94;5052264;28;20507;-38
2022/03/20 12:00:35;;;;;;;;;;;;;;;11.37;20.56;101794.81;5052204;28;19982;-38
2022/03/20 12:03:03;;;;;;;;;;;;;;;11.49;21.21;101793.53;5052572;28;19924;-38
2022/03/20 12:05:38;;;;;;;;;;;;;;;11.45;20.37;101794.84;5052339;28;19919;-38
2022/03/20 12:08:12;;;;;;;;;;;;;;;12.41;20.16;101785.63;5052809;28;19913;-38
2022/03/20 12:10:55;;;;;;;;;;;;;;;12.05;19.99;101790.41;5052113;28;20384;-38
2022/03/20 12:13:25;;;;;;;;;;;;;;;11.49;19.61;101779.38;5052286;28;19920;-38
2022/03/20 12:15:50;;;;;;;;;;;;;;;10.99;20.51;101770.28;5052120;28;19912;-38
2022/03/20 12:18:16;;;;;;;;;;;;;;;11.25;21.37;101770.28;5052088;28;20399;-38
2022/03/20 12:21:04;;;;;;;;;;;;;;;11.32;20.24;101767.81;5051922;28;20352;-38
2022/03/20 12:23:29;;;;;;;;;;;;;;;12.31;20.64;101761.78;5051830;28;20045;-38
2022/03/20 12:25:55;;;;;;;;;;;;;;;12.42;19.55;101763.28;5052100;28;20380;-38
2022/03/20 12:28:30;;;;;;;;;;;;;;;11.31;20.02;101758.97;5051165;28;19940;-38
2022/03/20 12:30:55;;;;;;;;;;;;;;;11.26;20.90;101750.63;5051839;28;19920;-38
2022/03/20 12:33:22;;;;;;;;;;;;;;;11.54;20.78;101750.41;5050313;28;20311;-38
2022/03/20 12:35:48;;;;;;;;;;;;;;;11.81;20.18;101740.50;5051566;28;19916;-38
2022/03/20 12:38:37;;;;;;;;;;;;;;;11.52;21.28;101747.06;5051784;28;20363;-38
2022/03/20 12:41:16;;;;;;;;;;;;;;;11.64;19.85;101736.94;5051735;28;20312;-38
2022/03/20 12:43:42;;;;;;;;;;;;;;;11.61;20.51;101742.59;5051225;28;19924;-38
2022/03/20 12:46:09;;;;;;;;;;;;;;;11.08;20.49;101731.19;5051940;28;19924;-37
2022/03/20 12:48:35;;;;;;;;;;;;;;;11.90;19.68;101731.56;5051918;28;19912;-37
2022/03/20 12:51:07;;;;;;;;;;;;;;;11.76;19.78;101721.47;5051740;28;19913;-38
2022/03/20 12:53:44;;;;;;;;;;;;;;;11.23;20.59;101718.97;5051830;28;19951;-38
2022/03/20 12:56:12;;;;;;;;;;;;;;;11.23;20.23;101721.63;5052078;28;19923;-38
2022/03/20 12:58:37;;;;;;;;;;;;;;;11.24;20.76;101715.28;5051754;28;19912;-38
2022/03/20 13:01:06;;;;;;;;;;;;;;;9.71;21.04;101711.13;5051720;28;19912;-37
2022/03/20 13:03:33;;;;;;;;;;;;;;;9.92;21.69;101710.00;5051446;28;20353;-37